createdAt,value
2023-04-10T00:00:31.528Z,89.47
2023-04-10T00:03:05.133Z,89.21
2023-04-10T00:05:38.508Z,89.54
2023-04-10T00:08:12.845Z,90.08
2023-04-10T00:10:45.880Z,89.51
2023-04-10T00:13:18.996Z,89.22
2023-04-10T00:15:52.014Z,89.77
2023-04-10T00:18:24.975Z,89.27
2023-04-10T00:20:57.924Z,89.47
2023-04-10T00:23:34.634Z,89.42
2023-04-10T00:26:07.674Z,89.46
2023-04-10T00:28:40.632Z,89.57
2023-04-10T00:31:13.633Z,89.44
2023-04-10T00:33:46.586Z,89.79
2023-04-10T00:36:20.713Z,90.04
2023-04-10T00:38:55.252Z,89.73
2023-04-10T00:41:29.440Z,89.44
2023-04-10T00:44:02.479Z,89.43
2023-04-10T00:46:37.269Z,89.17
2023-04-10T00:49:10.490Z,89.57
2023-04-10T00:51:43.724Z,88.76
2023-04-10T00:54:18.066Z,88.88
2023-04-10T00:56:51.476Z,89.69
2023-04-10T00:59:24.566Z,89.81
2023-04-10T01:01:57.982Z,90.39
2023-04-10T01:04:31.963Z,90.26
2023-04-10T01:07:12.872Z,90.23
2023-04-10T01:09:54.620Z,90.71
2023-04-10T01:12:45.662Z,90.08
2023-04-10T01:15:22.271Z,90.17
2023-04-10T01:18:03.198Z,91.53
2023-04-10T01:20:39.620Z,91.24
2023-04-10T01:23:56.368Z,91.22
2023-04-10T01:26:50.990Z,91.32
2023-04-10T01:29:29.440Z,90.77
2023-04-10T01:32:05.063Z,90.39
2023-04-10T01:34:43.115Z,90.83
2023-04-10T01:37:21.372Z,90.17
2023-04-10T01:40:03.145Z,90.74
2023-04-10T01:42:45.573Z,90.70
2023-04-10T01:45:24.161Z,90.65
2023-04-10T01:47:57.960Z,90.07
2023-04-10T01:50:33.000Z,90.21
2023-04-10T01:53:08.143Z,90.80
2023-04-10T01:55:42.041Z,91.00
2023-04-10T01:58:15.408Z,91.50
2023-04-10T02:00:50.377Z,91.51
2023-04-10T02:03:23.421Z,91.64
2023-04-10T02:06:11.912Z,92.16
2023-04-10T02:08:54.864Z,92.23
2023-04-10T02:11:36.766Z,92.70
2023-04-10T02:14:13.335Z,92.87
2023-04-10T02:16:48.230Z,91.85
2023-04-10T02:19:23.842Z,92.25
2023-04-10T02:21:58.075Z,91.35
2023-04-10T02:24:31.328Z,92.03
2023-04-10T02:27:04.376Z,92.26
2023-04-10T02:29:37.412Z,91.72
2023-04-10T02:32:11.867Z,92.16
2023-04-10T02:34:44.846Z,92.08
2023-04-10T02:37:17.892Z,92.49
2023-04-10T02:39:51.287Z,94.20
2023-04-10T02:42:24.489Z,95.15
2023-04-10T02:44:57.515Z,95.40
2023-04-10T02:47:32.219Z,96.29
2023-04-10T02:50:06.032Z,95.87
2023-04-10T02:52:39.010Z,95.99
2023-04-10T02:55:12.513Z,95.86
2023-04-10T02:57:45.471Z,96.35
2023-04-10T03:00:20.015Z,95.68
2023-04-10T03:02:54.634Z,95.64
2023-04-10T03:05:28.888Z,95.31
2023-04-10T03:08:01.838Z,95.33
2023-04-10T03:10:34.804Z,95.11
2023-04-10T03:13:08.462Z,95.42
2023-04-10T03:15:41.500Z,95.53
2023-04-10T03:18:16.046Z,95.79
2023-04-10T03:20:49.909Z,95.38
2023-04-10T03:23:22.972Z,95.24
2023-04-10T03:25:56.141Z,96.72
2023-04-10T03:28:29.712Z,95.96
2023-04-10T03:31:03.769Z,94.89
2023-04-10T03:33:38.129Z,95.24
2023-04-10T03:36:12.094Z,95.34
2023-04-10T03:38:45.056Z,94.73
2023-04-10T03:41:17.987Z,93.31
2023-04-10T03:43:50.946Z,93.77
2023-04-10T03:46:23.950Z,92.89
2023-04-10T03:48:58.249Z,93.11
2023-04-10T03:51:31.625Z,93.16
2023-04-10T03:54:04.746Z,93.09
2023-04-10T03:56:37.708Z,93.24
2023-04-10T03:59:10.737Z,93.47
2023-04-10T04:01:43.779Z,94.22
2023-04-10T04:04:18.248Z,94.24
2023-04-10T04:06:51.264Z,94.17
2023-04-10T04:09:24.168Z,94.69
2023-04-10T04:11:57.290Z,94.86
2023-04-10T04:14:30.254Z,94.67
2023-04-10T04:17:03.304Z,94.14
2023-04-10T04:19:37.600Z,94.24
2023-04-10T04:22:10.897Z,94.43
2023-04-10T04:24:43.823Z,95.14
2023-04-10T04:27:16.770Z,94.69
2023-04-10T04:29:49.721Z,95.17
2023-04-10T04:32:22.828Z,95.23
2023-04-10T04:34:57.233Z,93.89
2023-04-10T04:37:30.203Z,93.70
2023-04-10T04:40:03.656Z,92.78
2023-04-10T04:42:37.331Z,93.71
2023-04-10T04:45:11.534Z,94.15
2023-04-10T04:47:44.573Z,94.91
2023-04-10T04:50:19.104Z,95.41
2023-04-10T04:52:52.064Z,95.58
2023-04-10T04:55:24.962Z,94.99
2023-04-10T04:57:57.926Z,95.35
2023-04-10T05:00:31.021Z,95.22
2023-04-10T05:03:04.288Z,94.52
2023-04-10T05:05:38.722Z,94.54
2023-04-10T05:08:11.717Z,94.76
2023-04-10T05:10:44.673Z,94.68
2023-04-10T05:13:18.062Z,94.50
2023-04-10T05:15:51.169Z,93.87
2023-04-10T05:18:24.192Z,94.05
2023-04-10T05:20:58.520Z,95.17
2023-04-10T05:23:31.480Z,94.83
2023-04-10T05:26:06.033Z,95.11
2023-04-10T05:28:38.958Z,94.66
2023-04-10T05:31:12.115Z,93.83
2023-04-10T05:33:45.227Z,93.89
2023-04-10T05:36:19.641Z,92.92
2023-04-10T05:38:52.974Z,91.61
2023-04-10T05:41:26.160Z,91.14
2023-04-10T05:43:59.073Z,91.17
2023-04-10T05:46:32.046Z,89.29
2023-04-10T05:49:05.012Z,87.21
2023-04-10T05:51:39.280Z,84.69
2023-04-10T05:54:12.228Z,83.17
2023-04-10T05:56:45.190Z,82.30
2023-04-10T05:59:18.153Z,80.50
2023-04-10T06:01:51.656Z,80.51
2023-04-10T06:04:25.052Z,79.59
2023-04-10T06:06:59.766Z,77.11
2023-04-10T06:09:32.672Z,76.14
2023-04-10T06:12:05.959Z,74.55
2023-04-10T06:14:38.945Z,74.01
2023-04-10T06:17:11.868Z,72.59
2023-04-10T06:19:44.810Z,72.10
2023-04-10T06:22:19.099Z,71.15
2023-04-10T06:24:52.293Z,69.65
2023-04-10T06:27:25.232Z,68.95
2023-04-10T06:29:58.220Z,67.39
2023-04-10T06:32:31.650Z,65.89
2023-04-10T06:35:05.246Z,65.30
2023-04-10T06:37:39.539Z,62.78
2023-04-10T06:40:15.382Z,64.54
2023-04-10T06:42:48.308Z,61.85
2023-04-10T06:45:21.548Z,62.97
2023-04-10T06:47:54.964Z,62.62
2023-04-10T06:50:28.041Z,61.08
2023-04-10T06:53:02.419Z,59.72
2023-04-10T06:55:35.401Z,58.03
2023-04-10T06:58:08.317Z,55.66
2023-04-10T07:00:42.309Z,54.19
2023-04-10T07:03:15.504Z,53.33
2023-04-10T07:05:48.634Z,52.78
2023-04-10T07:08:22.912Z,51.44
2023-04-10T07:10:57.924Z,49.07
2023-04-10T07:13:31.672Z,46.07
2023-04-10T07:16:04.732Z,45.20
2023-04-10T07:18:38.521Z,44.62
2023-04-10T07:21:13.162Z,44.27
2023-04-10T07:23:47.826Z,44.35
2023-04-10T07:26:20.777Z,43.14
2023-04-10T07:28:53.928Z,44.17
2023-04-10T07:31:27.125Z,43.65
2023-04-10T07:34:00.068Z,42.02
2023-04-10T07:36:33.061Z,42.24
2023-04-10T07:39:07.488Z,43.43
2023-04-10T07:41:40.532Z,43.71
2023-04-10T07:44:14.400Z,43.37
2023-04-10T07:46:47.492Z,43.52
2023-04-10T07:49:20.442Z,43.91
2023-04-10T07:51:53.368Z,44.10
2023-04-10T07:54:27.650Z,44.04
2023-04-10T07:57:00.626Z,42.37
2023-04-10T07:59:33.573Z,43.05
2023-04-10T08:02:06.666Z,43.44
2023-04-10T08:04:39.725Z,44.44
2023-04-10T08:07:12.718Z,44.68
2023-04-10T08:09:46.970Z,43.93
2023-04-10T08:12:19.848Z,43.91
2023-04-10T08:14:52.751Z,43.36
2023-04-10T08:17:25.893Z,43.83
2023-04-10T08:19:58.805Z,42.64
2023-04-10T08:22:31.924Z,42.75
2023-04-10T08:25:07.268Z,43.78
2023-04-10T08:27:40.248Z,43.29
2023-04-10T08:30:13.948Z,42.78
2023-04-10T08:32:46.965Z,42.08
2023-04-10T08:35:20.480Z,41.91
2023-04-10T08:38:07.768Z,42.56
2023-04-10T08:40:47.913Z,41.74
2023-04-10T08:43:20.916Z,42.62
2023-04-10T08:45:54.428Z,42.11
2023-04-10T08:48:35.506Z,41.68
2023-04-10T08:51:18.677Z,42.14
2023-04-10T08:53:56.430Z,41.34
2023-04-10T08:56:32.229Z,42.70
2023-04-10T08:59:06.474Z,40.35
2023-04-10T09:01:41.562Z,39.50
2023-04-10T09:04:15.016Z,39.19
2023-04-10T09:06:48.429Z,40.06
2023-04-10T09:09:21.412Z,39.98
2023-04-10T09:12:04.049Z,40.39
2023-04-10T09:14:38.702Z,40.40
2023-04-10T09:17:15.791Z,40.24
2023-04-10T09:19:52.352Z,39.88
2023-04-10T09:22:32.408Z,38.88
2023-04-10T09:25:07.204Z,40.85
2023-04-10T09:27:42.364Z,40.45
2023-04-10T09:30:35.205Z,40.90
2023-04-10T09:33:27.420Z,39.01
2023-04-10T09:36:01.038Z,38.63
2023-04-10T09:38:35.301Z,38.90
2023-04-10T09:41:09.490Z,39.58
2023-04-10T09:43:45.750Z,39.84
2023-04-10T09:46:28.677Z,39.19
2023-04-10T09:49:05.185Z,39.44
2023-04-10T09:51:39.470Z,39.43
2023-04-10T09:54:12.464Z,38.96
2023-04-10T09:56:47.811Z,40.13
2023-04-10T09:59:22.141Z,39.23
2023-04-10T10:01:55.194Z,37.79
2023-04-10T10:04:29.275Z,38.55
2023-04-10T10:07:02.558Z,38.72
2023-04-10T10:09:38.586Z,38.87
2023-04-10T10:12:13.747Z,38.34
2023-04-10T10:14:56.377Z,37.96
2023-04-10T10:17:36.927Z,36.93
2023-04-10T10:20:11.698Z,36.12
2023-04-10T10:22:45.285Z,36.96
2023-04-10T10:25:20.523Z,34.63
2023-04-10T10:27:54.854Z,35.04
2023-04-10T10:30:30.657Z,34.95
2023-04-10T10:33:07.837Z,34.79
2023-04-10T10:35:41.855Z,35.47
2023-04-10T10:38:15.453Z,35.67
2023-04-10T10:40:56.099Z,36.32
2023-04-10T10:43:38.548Z,35.74
2023-04-10T10:46:18.876Z,36.34
2023-04-10T10:48:58.901Z,36.26
2023-04-10T10:51:45.488Z,35.35
2023-04-10T10:54:33.107Z,35.75
2023-04-10T10:57:47.592Z,35.90
2023-04-10T11:00:22.906Z,35.93
2023-04-10T11:03:34.275Z,36.22
2023-04-10T11:06:09.705Z,36.70
2023-04-10T11:08:47.677Z,37.42
2023-04-10T11:11:23.523Z,37.01
2023-04-10T11:14:18.178Z,37.13
2023-04-10T11:16:51.296Z,37.31
2023-04-10T11:19:26.189Z,35.60
2023-04-10T11:22:08.234Z,35.87
2023-04-10T11:25:00.564Z,36.06
2023-04-10T11:27:49.207Z,35.58
2023-04-10T11:30:34.505Z,35.01
2023-04-10T11:33:07.716Z,35.18
2023-04-10T11:35:42.467Z,35.71
2023-04-10T11:38:18.885Z,36.34
2023-04-10T11:41:01.620Z,35.37
2023-04-10T11:43:35.849Z,31.50
2023-04-10T11:46:09.145Z,31.52
2023-04-10T11:48:42.275Z,32.55
2023-04-10T11:51:16.610Z,30.23
2023-04-10T11:53:49.689Z,28.35
2023-04-10T11:56:22.872Z,27.12
2023-04-10T11:58:56.121Z,26.20
2023-04-10T12:01:29.357Z,27.11
2023-04-10T12:04:02.593Z,26.90
2023-04-10T12:06:37.444Z,27.09
2023-04-10T12:09:15.719Z,27.65
2023-04-10T12:11:53.445Z,25.84
2023-04-10T12:14:33.657Z,26.23
2023-04-10T12:17:08.738Z,28.88
2023-04-10T12:19:41.972Z,29.93
2023-04-10T12:22:16.948Z,30.49
2023-04-10T12:24:51.886Z,29.39
2023-04-10T12:27:27.040Z,30.34
2023-04-10T12:30:00.356Z,29.32
2023-04-10T12:32:33.408Z,29.60
2023-04-10T12:35:07.614Z,29.13
2023-04-10T12:37:54.591Z,28.13
2023-04-10T12:40:27.905Z,29.38
2023-04-10T12:43:00.967Z,29.15
2023-04-10T12:45:43.837Z,29.55
2023-04-10T12:48:24.491Z,29.76
2023-04-10T12:50:57.669Z,29.30
2023-04-10T12:53:32.864Z,30.76
2023-04-10T12:56:07.784Z,31.29
2023-04-10T12:58:42.600Z,30.47
2023-04-10T13:01:15.649Z,31.57
2023-04-10T13:03:49.069Z,31.05
2023-04-10T13:06:22.163Z,30.01
2023-04-10T13:08:56.733Z,30.43
2023-04-10T13:11:29.740Z,29.45
2023-04-10T13:14:02.725Z,30.12
2023-04-10T13:16:37.216Z,28.83
2023-04-10T13:19:10.244Z,29.61
2023-04-10T13:21:43.216Z,29.54
2023-04-10T13:24:17.513Z,29.34
2023-04-10T13:26:50.436Z,29.90
2023-04-10T13:29:23.388Z,30.11
2023-04-10T13:31:56.422Z,29.47
2023-04-10T13:34:29.477Z,30.15
2023-04-10T13:37:03.157Z,30.19
2023-04-10T13:39:37.515Z,28.69
2023-04-10T13:42:10.944Z,29.41
2023-04-10T13:44:43.971Z,29.36
2023-04-10T13:47:17.018Z,29.30
2023-04-10T13:49:50.226Z,28.39
2023-04-10T13:52:23.146Z,29.06
2023-04-10T13:54:57.488Z,28.64
2023-04-10T13:57:30.676Z,29.11
2023-04-10T14:00:04.658Z,29.03
2023-04-10T14:02:37.966Z,29.31
2023-04-10T14:05:11.996Z,29.60
2023-04-10T14:07:44.953Z,29.48
2023-04-10T14:10:20.251Z,29.49
2023-04-10T14:12:53.260Z,28.77
2023-04-10T14:15:26.238Z,28.32
2023-04-10T14:17:59.281Z,29.04
2023-04-10T14:20:32.658Z,28.49
2023-04-10T14:23:06.604Z,29.63
2023-04-10T14:25:41.602Z,28.95
2023-04-10T14:28:18.176Z,28.97
2023-04-10T14:30:53.042Z,28.70
2023-04-10T14:33:26.576Z,28.63
2023-04-10T14:36:00.275Z,28.60
2023-04-10T14:38:33.764Z,28.84
2023-04-10T14:41:09.263Z,28.39
2023-04-10T14:43:43.678Z,28.76
2023-04-10T14:46:18.628Z,29.25
2023-04-10T14:48:52.436Z,28.95
2023-04-10T14:51:26.263Z,29.34
2023-04-10T14:53:59.239Z,29.76
2023-04-10T14:56:33.542Z,30.16
2023-04-10T14:59:06.968Z,29.29
2023-04-10T15:01:40.073Z,29.18
2023-04-10T15:04:13.449Z,29.62
2023-04-10T15:06:46.688Z,28.82
2023-04-10T15:09:21.459Z,29.12
2023-04-10T15:11:56.638Z,28.92
2023-04-10T15:14:29.622Z,29.53
2023-04-10T15:17:02.823Z,29.15
2023-04-10T15:19:35.933Z,29.49
2023-04-10T15:22:08.891Z,29.21
2023-04-10T15:24:49.743Z,28.74
2023-04-10T15:27:25.081Z,29.23
2023-04-10T15:29:58.010Z,29.50
2023-04-10T15:32:31.091Z,29.39
2023-04-10T15:35:04.114Z,29.61
2023-04-10T15:37:37.514Z,29.59
2023-04-10T15:40:11.384Z,29.48
2023-04-10T15:42:45.708Z,29.44
2023-04-10T15:45:19.013Z,28.92
2023-04-10T15:47:52.029Z,29.55
2023-04-10T15:50:25.187Z,29.59
2023-04-10T15:52:58.151Z,29.67
2023-04-10T15:55:31.394Z,30.10
2023-04-10T15:58:05.744Z,30.10
2023-04-10T16:00:38.869Z,29.79
2023-04-10T16:03:11.990Z,30.45
2023-04-10T16:05:45.000Z,30.63
2023-04-10T16:08:18.054Z,30.07
2023-04-10T16:10:51.022Z,30.03
2023-04-10T16:13:25.385Z,30.37
2023-04-10T16:15:58.515Z,30.71
2023-04-10T16:18:31.533Z,30.27
2023-04-10T16:21:09.055Z,30.34
2023-04-10T16:23:42.034Z,30.43
2023-04-10T16:26:15.172Z,30.64
2023-04-10T16:28:49.546Z,30.37
2023-04-10T16:31:22.562Z,30.76
2023-04-10T16:33:56.418Z,30.64
2023-04-10T16:36:29.364Z,30.96
2023-04-10T16:39:02.368Z,31.05
2023-04-10T16:41:35.482Z,31.47
2023-04-10T16:44:09.801Z,31.89
2023-04-10T16:46:42.815Z,32.24
2023-04-10T16:49:16.305Z,31.16
2023-04-10T16:51:49.271Z,31.59
2023-04-10T16:54:22.300Z,31.04
2023-04-10T16:56:55.598Z,31.02
2023-04-10T16:59:29.906Z,31.92
2023-04-10T17:02:02.964Z,32.14
2023-04-10T17:04:35.970Z,32.11
2023-04-10T17:07:09.173Z,31.59
2023-04-10T17:09:42.291Z,32.46
2023-04-10T17:12:15.415Z,31.72
2023-04-10T17:14:49.762Z,32.54
2023-04-10T17:17:22.949Z,32.42
2023-04-10T17:19:56.050Z,32.19
2023-04-10T17:22:29.065Z,32.42
2023-04-10T17:25:02.332Z,33.11
2023-04-10T17:27:36.283Z,33.05
2023-04-10T17:30:15.088Z,33.20
2023-04-10T17:32:49.183Z,33.70
2023-04-10T17:35:22.228Z,33.02
2023-04-10T17:37:55.256Z,33.15
2023-04-10T17:40:28.976Z,33.05
2023-04-10T17:43:02.015Z,33.49
2023-04-10T17:45:38.890Z,33.58
2023-04-10T17:48:12.247Z,33.93
2023-04-10T17:50:45.327Z,33.91
2023-04-10T17:53:18.532Z,33.65
2023-04-10T17:55:51.716Z,33.94
2023-04-10T17:58:24.737Z,34.06
2023-04-10T18:00:59.083Z,33.92
2023-04-10T18:03:32.222Z,34.19
2023-04-10T18:06:05.702Z,35.09
2023-04-10T18:08:38.729Z,35.70
2023-04-10T18:11:11.746Z,37.33
2023-04-10T18:13:44.788Z,37.75
2023-04-10T18:16:19.308Z,38.81
2023-04-10T18:18:52.588Z,38.68
2023-04-10T18:21:27.184Z,39.60
2023-04-10T18:24:00.164Z,39.96
2023-04-10T18:26:34.828Z,39.73
2023-04-10T18:29:08.299Z,40.22
2023-04-10T18:31:43.648Z,40.24
2023-04-10T18:34:16.677Z,40.05
2023-04-10T18:36:49.689Z,39.16
2023-04-10T18:39:22.816Z,39.92
2023-04-10T18:41:57.276Z,40.90
2023-04-10T18:44:31.233Z,41.15
2023-04-10T18:47:06.799Z,40.66
2023-04-10T18:49:40.127Z,40.70
2023-04-10T18:52:13.061Z,38.34
2023-04-10T18:54:46.430Z,39.33
2023-04-10T18:57:19.502Z,38.25
2023-04-10T18:59:52.452Z,38.99
2023-04-10T19:02:28.419Z,39.71
2023-04-10T19:05:01.624Z,40.67
2023-04-10T19:07:34.586Z,41.71
2023-04-10T19:10:09.627Z,42.65
2023-04-10T19:12:42.636Z,43.46
2023-04-10T19:15:16.673Z,40.96
2023-04-10T19:17:54.020Z,41.51
2023-04-10T19:20:50.375Z,41.83
2023-04-10T19:23:20.544Z,41.68
2023-04-10T19:25:55.010Z,43.05
2023-04-10T19:28:28.213Z,42.53
2023-04-10T19:31:01.371Z,42.75
2023-04-10T19:33:35.719Z,44.85
2023-04-10T19:36:10.682Z,44.85
2023-04-10T19:38:44.915Z,45.61
2023-04-10T19:41:18.819Z,46.08
2023-04-10T19:43:53.945Z,47.15
2023-04-10T19:46:27.353Z,47.07
2023-04-10T19:49:01.713Z,47.73
2023-04-10T19:51:34.912Z,47.17
2023-04-10T19:54:07.995Z,47.46
2023-04-10T19:56:41.017Z,47.34
2023-04-10T19:59:13.944Z,46.44
2023-04-10T20:01:47.212Z,46.19
2023-04-10T20:04:21.808Z,45.75
2023-04-10T20:06:54.955Z,45.50
2023-04-10T20:09:27.991Z,45.77
2023-04-10T20:12:01.617Z,46.06
2023-04-10T20:14:34.603Z,46.52
2023-04-10T20:17:07.653Z,47.56
2023-04-10T20:19:41.965Z,46.47
2023-04-10T20:22:14.958Z,47.17
2023-04-10T20:24:47.955Z,47.43
2023-04-10T20:27:20.993Z,48.28
2023-04-10T20:29:53.964Z,47.94
2023-04-10T20:32:26.984Z,45.63
2023-04-10T20:35:01.338Z,45.66
2023-04-10T20:37:34.377Z,49.08
2023-04-10T20:40:09.486Z,49.61
2023-04-10T20:42:44.170Z,51.75
2023-04-10T20:45:17.428Z,51.93
2023-04-10T20:47:50.509Z,52.62
2023-04-10T20:50:24.911Z,52.85
2023-04-10T20:52:57.878Z,53.83
2023-04-10T20:55:30.833Z,53.74
2023-04-10T20:58:03.886Z,54.15
2023-04-10T21:00:37.407Z,54.97
2023-04-10T21:03:10.700Z,54.24
2023-04-10T21:05:45.247Z,54.98
2023-04-10T21:08:19.250Z,55.36
2023-04-10T21:10:52.265Z,55.54
2023-04-10T21:13:25.321Z,56.11
2023-04-10T21:15:58.306Z,55.87
2023-04-10T21:18:31.750Z,55.49
2023-04-10T21:21:06.827Z,55.54
2023-04-10T21:23:39.825Z,55.53
2023-04-10T21:26:12.780Z,54.76
2023-04-10T21:28:45.823Z,53.76
2023-04-10T21:31:18.791Z,53.11
2023-04-10T21:33:51.772Z,54.78
2023-04-10T21:36:26.446Z,55.75
2023-04-10T21:38:59.454Z,55.77
2023-04-10T21:41:32.424Z,54.50
2023-04-10T21:44:05.531Z,55.49
2023-04-10T21:46:38.512Z,55.57
2023-04-10T21:49:11.512Z,55.65
2023-04-10T21:51:45.941Z,56.16
2023-04-10T21:54:18.884Z,56.84
2023-04-10T21:56:51.845Z,57.38
2023-04-10T21:59:24.863Z,57.63
2023-04-10T22:01:57.850Z,58.16
2023-04-10T22:04:31.908Z,58.39
2023-04-10T22:07:07.418Z,59.10
2023-04-10T22:09:40.442Z,59.68
2023-04-10T22:12:13.517Z,59.72
2023-04-10T22:14:48.244Z,59.45
2023-04-10T22:17:21.344Z,58.94
2023-04-10T22:19:54.417Z,59.27
2023-04-10T22:22:28.758Z,58.98
2023-04-10T22:25:01.802Z,58.83
2023-04-10T22:27:34.966Z,59.27
2023-04-10T22:30:10.007Z,58.98
2023-04-10T22:32:43.153Z,58.73
2023-04-10T22:35:17.285Z,58.47
2023-04-10T22:37:51.952Z,58.91
2023-04-10T22:40:24.975Z,60.86
2023-04-10T22:42:57.911Z,59.95
2023-04-10T22:45:31.036Z,61.54
2023-04-10T22:48:04.207Z,60.38
2023-04-10T22:50:37.740Z,60.08
2023-04-10T22:53:12.438Z,59.38
2023-04-10T22:55:45.414Z,58.47
2023-04-10T22:58:18.382Z,58.51
2023-04-10T23:00:51.334Z,58.04
2023-04-10T23:03:24.547Z,57.15
2023-04-10T23:05:57.496Z,57.70
2023-04-10T23:08:32.027Z,57.74
2023-04-10T23:11:05.342Z,57.59
2023-04-10T23:13:38.323Z,58.18
2023-04-10T23:16:12.116Z,58.20
2023-04-10T23:18:45.241Z,58.08
2023-04-10T23:21:18.296Z,58.41
2023-04-10T23:23:52.638Z,57.82
2023-04-10T23:26:25.637Z,57.72
2023-04-10T23:28:58.651Z,57.67
2023-04-10T23:31:31.689Z,57.86
2023-04-10T23:34:04.845Z,57.86
2023-04-10T23:36:37.857Z,57.98
2023-04-10T23:39:12.585Z,58.49
2023-04-10T23:41:45.580Z,59.53
2023-04-10T23:44:18.562Z,60.69
2023-04-10T23:46:51.996Z,61.01
2023-04-10T23:49:25.017Z,61.85
2023-04-10T23:51:58.191Z,62.18
2023-04-10T23:54:32.500Z,62.02
2023-04-10T23:57:05.961Z,62.34
2023-04-10T23:59:39.064Z,62.66
